sensor_id;sensor_type;location;lat;lon;timestamp;P1;durP1;ratioP1;P2;durP2;ratioP2
15171;SDS011;7686;52.184;9.280;2023-03-23T00:01:24;0.63;;;0.60;;
15171;SDS011;7686;52.184;9.280;2023-03-23T00:03:52;0.40;;;0.40;;
15171;SDS011;7686;52.184;9.280;2023-03-23T00:06:22;0.50;;;0.50;;
15171;SDS011;7686;52.184;9.280;2023-03-23T00:08:49;1.05;;;0.60;;
15171;SDS011;7686;52.184;9.280;2023-03-23T00:11:19;0.80;;;0.43;;
15171;SDS011;7686;52.184;9.280;2023-03-23T00:13:46;0.95;;;0.60;;
15171;SDS011;7686;52.184;9.280;2023-03-23T00:16:18;0.55;;;0.55;;
15171;SDS011;7686;52.184;9.280;2023-03-23T00:18:49;0.50;;;0.50;;
15171;SDS011;7686;52.184;9.280;2023-03-23T00:21:20;0.50;;;0.50;;
15171;SDS011;7686;52.184;9.280;2023-03-23T00:23:50;0.40;;;0.40;;
15171;SDS011;7686;52.184;9.280;2023-03-23T00:26:17;0.45;;;0.45;;
15171;SDS011;7686;52.184;9.280;2023-03-23T00:28:43;0.47;;;0.40;;
15171;SDS011;7686;52.184;9.280;2023-03-23T00:31:11;0.60;;;0.60;;
15171;SDS011;7686;52.184;9.280;2023-03-23T00:33:38;0.57;;;0.57;;
15171;SDS011;7686;52.184;9.280;2023-03-23T00:36:09;0.40;;;0.40;;
15171;SDS011;7686;52.184;9.280;2023-03-23T00:38:37;0.75;;;0.50;;
15171;SDS011;7686;52.184;9.280;2023-03-23T00:41:03;0.60;;;0.43;;
15171;SDS011;7686;52.184;9.280;2023-03-23T00:43:30;0.55;;;0.55;;
15171;SDS011;7686;52.184;9.280;2023-03-23T00:45:57;2.13;;;0.60;;
15171;SDS011;7686;52.184;9.280;2023-03-23T00:48:26;1.10;;;0.50;;
15171;SDS011;7686;52.184;9.280;2023-03-23T00:50:53;2.00;;;0.60;;
15171;SDS011;7686;52.184;9.280;2023-03-23T00:53:19;0.52;;;0.50;;
15171;SDS011;7686;52.184;9.280;2023-03-23T00:55:46;1.08;;;0.43;;
15171;SDS011;7686;52.184;9.280;2023-03-23T00:58:13;0.82;;;0.50;;
15171;SDS011;7686;52.184;9.280;2023-03-23T01:00:39;0.40;;;0.40;;
15171;SDS011;7686;52.184;9.280;2023-03-23T01:03:06;0.47;;;0.47;;
15171;SDS011;7686;52.184;9.280;2023-03-23T01:05:36;0.40;;;0.40;;
15171;SDS011;7686;52.184;9.280;2023-03-23T01:08:03;0.40;;;0.40;;
15171;SDS011;7686;52.184;9.280;2023-03-23T01:10:30;0.75;;;0.63;;
15171;SDS011;7686;52.184;9.280;2023-03-23T01:12:57;0.40;;;0.40;;
15171;SDS011;7686;52.184;9.280;2023-03-23T01:15:27;0.50;;;0.40;;
15171;SDS011;7686;52.184;9.280;2023-03-23T01:17:54;0.40;;;0.40;;
15171;SDS011;7686;52.184;9.280;2023-03-23T01:20:20;1.48;;;0.32;;
15171;SDS011;7686;52.184;9.280;2023-03-23T01:22:46;0.52;;;0.50;;
15171;SDS011;7686;52.184;9.280;2023-03-23T01:25:12;0.43;;;0.43;;
15171;SDS011;7686;52.184;9.280;2023-03-23T01:27:39;0.65;;;0.60;;
15171;SDS011;7686;52.184;9.280;2023-03-23T01:30:05;0.70;;;0.60;;
15171;SDS011;7686;52.184;9.280;2023-03-23T01:32:32;0.57;;;0.57;;
15171;SDS011;7686;52.184;9.280;2023-03-23T01:34:58;0.50;;;0.50;;
15171;SDS011;7686;52.184;9.280;2023-03-23T01:37:24;0.40;;;0.40;;
15171;SDS011;7686;52.184;9.280;2023-03-23T01:39:55;0.50;;;0.40;;
15171;SDS011;7686;52.184;9.280;2023-03-23T01:42:21;0.47;;;0.40;;
15171;SDS011;7686;52.184;9.280;2023-03-23T01:47:20;0.40;;;0.40;;
15171;SDS011;7686;52.184;9.280;2023-03-23T01:49:48;0.40;;;0.40;;
15171;SDS011;7686;52.184;9.280;2023-03-23T01:52:16;0.40;;;0.40;;
15171;SDS011;7686;52.184;9.280;2023-03-23T01:54:51;0.40;;;0.40;;
15171;SDS011;7686;52.184;9.280;2023-03-23T01:57:20;0.73;;;0.40;;
15171;SDS011;7686;52.184;9.280;2023-03-23T01:59:49;0.40;;;0.40;;
15171;SDS011;7686;52.184;9.280;2023-03-23T02:02:16;0.40;;;0.40;;
15171;SDS011;7686;52.184;9.280;2023-03-23T02:04:45;0.85;;;0.57;;
15171;SDS011;7686;52.184;9.280;2023-03-23T02:07:11;0.52;;;0.47;;
15171;SDS011;7686;52.184;9.280;2023-03-23T02:09:39;0.43;;;0.43;;
15171;SDS011;7686;52.184;9.280;2023-03-23T02:12:04;0.40;;;0.40;;
15171;SDS011;7686;52.184;9.280;2023-03-23T02:14:30;0.50;;;0.50;;
15171;SDS011;7686;52.184;9.280;2023-03-23T02:17:04;0.52;;;0.50;;
15171;SDS011;7686;52.184;9.280;2023-03-23T02:38:48;0.55;;;0.50;;
15171;SDS011;7686;52.184;9.280;2023-03-23T02:41:21;0.77;;;0.40;;
15171;SDS011;7686;52.184;9.280;2023-03-23T02:43:50;0.50;;;0.50;;
15171;SDS011;7686;52.184;9.280;2023-03-23T02:46:17;0.50;;;0.50;;
15171;SDS011;7686;52.184;9.280;2023-03-23T02:48:45;0.45;;;0.30;;
15171;SDS011;7686;52.184;9.280;2023-03-23T02:51:15;0.47;;;0.47;;
15171;SDS011;7686;52.184;9.280;2023-03-23T02:53:44;0.43;;;0.43;;
15171;SDS011;7686;52.184;9.280;2023-03-23T02:56:11;0.57;;;0.55;;
15171;SDS011;7686;52.184;9.280;2023-03-23T02:58:38;0.30;;;0.30;;
15171;SDS011;7686;52.184;9.280;2023-03-23T03:01:13;0.45;;;0.45;;
15171;SDS011;7686;52.184;9.280;2023-03-23T03:04:05;0.38;;;0.38;;
15171;SDS011;7686;52.184;9.280;2023-03-23T03:11:40;0.45;;;0.45;;
15171;SDS011;7686;52.184;9.280;2023-03-23T03:14:12;0.40;;;0.40;;
15171;SDS011;7686;52.184;9.280;2023-03-23T03:16:50;0.95;;;0.60;;
15171;SDS011;7686;52.184;9.280;2023-03-23T03:21:50;0.40;;;0.40;;
15171;SDS011;7686;52.184;9.280;2023-03-23T03:24:19;0.68;;;0.50;;
15171;SDS011;7686;52.184;9.280;2023-03-23T03:26:48;0.50;;;0.50;;
15171;SDS011;7686;52.184;9.280;2023-03-23T03:29:16;0.45;;;0.45;;
15171;SDS011;7686;52.184;9.280;2023-03-23T03:31:44;0.47;;;0.47;;
15171;SDS011;7686;52.184;9.280;2023-03-23T03:34:13;0.35;;;0.35;;
15171;SDS011;7686;52.184;9.280;2023-03-23T03:36:42;0.40;;;0.40;;
15171;SDS011;7686;52.184;9.280;2023-03-23T03:39:11;0.52;;;0.32;;
15171;SDS011;7686;52.184;9.280;2023-03-23T03:41:38;0.50;;;0.50;;
15171;SDS011;7686;52.184;9.280;2023-03-23T03:44:05;0.47;;;0.47;;
15171;SDS011;7686;52.184;9.280;2023-03-23T03:46:31;0.40;;;0.40;;
15171;SDS011;7686;52.184;9.280;2023-03-23T03:48:58;0.47;;;0.47;;
15171;SDS011;7686;52.184;9.280;2023-03-23T03:51:25;0.47;;;0.35;;
15171;SDS011;7686;52.184;9.280;2023-03-23T03:53:51;0.43;;;0.40;;
15171;SDS011;7686;52.184;9.280;2023-03-23T03:56:17;0.40;;;0.40;;
15171;SDS011;7686;52.184;9.280;2023-03-23T03:58:44;0.40;;;0.40;;
15171;SDS011;7686;52.184;9.280;2023-03-23T04:01:10;0.30;;;0.30;;
15171;SDS011;7686;52.184;9.280;2023-03-23T04:03:36;0.40;;;0.40;;
15171;SDS011;7686;52.184;9.280;2023-03-23T04:06:02;0.40;;;0.40;;
15171;SDS011;7686;52.184;9.280;2023-03-23T04:08:28;0.50;;;0.50;;
15171;SDS011;7686;52.184;9.280;2023-03-23T04:10:55;0.40;;;0.40;;
15171;SDS011;7686;52.184;9.280;2023-03-23T04:13:20;0.85;;;0.40;;
15171;SDS011;7686;52.184;9.280;2023-03-23T04:15:47;0.52;;;0.50;;
15171;SDS011;7686;52.184;9.280;2023-03-23T04:18:14;0.40;;;0.30;;
15171;SDS011;7686;52.184;9.280;2023-03-23T04:20:42;0.40;;;0.40;;
15171;SDS011;7686;52.184;9.280;2023-03-23T04:23:09;0.40;;;0.40;;
15171;SDS011;7686;52.184;9.280;2023-03-23T04:25:35;1.33;;;0.47;;
15171;SDS011;7686;52.184;9.280;2023-03-23T04:28:01;0.73;;;0.40;;
15171;SDS011;7686;52.184;9.280;2023-03-23T04:30:27;0.30;;;0.30;;
15171;SDS011;7686;52.184;9.280;2023-03-23T04:32:55;0.55;;;0.45;;
15171;SDS011;7686;52.184;9.280;2023-03-23T04:35:23;0.77;;;0.40;;
15171;SDS011;7686;52.184;9.280;2023-03-23T04:37:52;0.40;;;0.40;;
15171;SDS011;7686;52.184;9.280;2023-03-23T04:40:19;0.47;;;0.40;;
15171;SDS011;7686;52.184;9.280;2023-03-23T04:42:45;1.05;;;0.40;;
15171;SDS011;7686;52.184;9.280;2023-03-23T04:45:12;0.70;;;0.40;;
15171;SDS011;7686;52.184;9.280;2023-03-23T04:47:39;0.35;;;0.35;;
15171;SDS011;7686;52.184;9.280;2023-03-23T04:50:09;0.43;;;0.43;;
15171;SDS011;7686;52.184;9.280;2023-03-23T04:52:39;1.45;;;0.60;;
15171;SDS011;7686;52.184;9.280;2023-03-23T04:55:10;0.57;;;0.40;;
15171;SDS011;7686;52.184;9.280;2023-03-23T04:57:36;0.50;;;0.40;;
15171;SDS011;7686;52.184;9.280;2023-03-23T05:00:03;1.73;;;0.52;;
15171;SDS011;7686;52.184;9.280;2023-03-23T05:02:37;1.50;;;0.50;;
15171;SDS011;7686;52.184;9.280;2023-03-23T05:05:05;0.45;;;0.40;;
15171;SDS011;7686;52.184;9.280;2023-03-23T05:07:36;1.83;;;0.50;;
15171;SDS011;7686;52.184;9.280;2023-03-23T05:10:03;0.50;;;0.40;;
15171;SDS011;7686;52.184;9.280;2023-03-23T05:12:30;0.85;;;0.45;;
15171;SDS011;7686;52.184;9.280;2023-03-23T05:14:56;0.85;;;0.38;;
15171;SDS011;7686;52.184;9.280;2023-03-23T05:17:21;0.77;;;0.52;;
15171;SDS011;7686;52.184;9.280;2023-03-23T05:19:51;1.25;;;0.70;;
15171;SDS011;7686;52.184;9.280;2023-03-23T05:22:17;1.05;;;0.60;;
15171;SDS011;7686;52.184;9.280;2023-03-23T05:24:45;2.47;;;0.45;;
15171;SDS011;7686;52.184;9.280;2023-03-23T05:27:12;2.13;;;0.60;;
15171;SDS011;7686;52.184;9.280;2023-03-23T05:29:39;2.00;;;0.47;;
15171;SDS011;7686;52.184;9.280;2023-03-23T05:32:09;4.20;;;0.50;;
15171;SDS011;7686;52.184;9.280;2023-03-23T05:34:36;2.47;;;0.80;;
15171;SDS011;7686;52.184;9.280;2023-03-23T05:37:02;1.77;;;0.68;;
15171;SDS011;7686;52.184;9.280;2023-03-23T05:39:29;4.22;;;0.68;;
15171;SDS011;7686;52.184;9.280;2023-03-23T05:41:56;1.13;;;0.65;;
15171;SDS011;7686;52.184;9.280;2023-03-23T05:44:22;1.00;;;0.63;;
15171;SDS011;7686;52.184;9.280;2023-03-23T05:46:48;0.82;;;0.68;;
15171;SDS011;7686;52.184;9.280;2023-03-23T05:49:14;1.25;;;0.55;;
15171;SDS011;7686;52.184;9.280;2023-03-23T05:51:41;1.67;;;0.60;;
15171;SDS011;7686;52.184;9.280;2023-03-23T05:54:09;1.10;;;0.60;;
15171;SDS011;7686;52.184;9.280;2023-03-23T05:56:36;0.68;;;0.60;;
15171;SDS011;7686;52.184;9.280;2023-03-23T05:59:01;0.55;;;0.47;;
15171;SDS011;7686;52.184;9.280;2023-03-23T06:01:27;2.17;;;0.60;;
15171;SDS011;7686;52.184;9.280;2023-03-23T06:03:53;0.80;;;0.40;;
15171;SDS011;7686;52.184;9.280;2023-03-23T06:06:26;2.45;;;0.65;;
15171;SDS011;7686;52.184;9.280;2023-03-23T06:08:54;1.52;;;0.70;;
15171;SDS011;7686;52.184;9.280;2023-03-23T06:11:21;1.10;;;0.45;;
15171;SDS011;7686;52.184;9.280;2023-03-23T06:13:48;1.13;;;0.60;;
15171;SDS011;7686;52.184;9.280;2023-03-23T06:16:14;2.28;;;0.60;;
15171;SDS011;7686;52.184;9.280;2023-03-23T06:18:39;1.42;;;0.55;;
15171;SDS011;7686;52.184;9.280;2023-03-23T06:21:06;0.60;;;0.40;;
15171;SDS011;7686;52.184;9.280;2023-03-23T06:23:33;1.00;;;0.60;;
15171;SDS011;7686;52.184;9.280;2023-03-23T06:26:00;1.15;;;0.57;;
15171;SDS011;7686;52.184;9.280;2023-03-23T06:28:28;1.23;;;0.52;;
15171;SDS011;7686;52.184;9.280;2023-03-23T06:30:54;3.35;;;0.60;;
15171;SDS011;7686;52.184;9.280;2023-03-23T06:33:23;2.80;;;0.55;;
15171;SDS011;7686;52.184;9.280;2023-03-23T06:35:49;1.35;;;0.52;;
15171;SDS011;7686;52.184;9.280;2023-03-23T06:38:16;1.02;;;0.70;;
15171;SDS011;7686;52.184;9.280;2023-03-23T06:40:42;1.33;;;0.50;;
15171;SDS011;7686;52.184;9.280;2023-03-23T06:43:11;0.88;;;0.40;;
15171;SDS011;7686;52.184;9.280;2023-03-23T06:45:38;2.05;;;0.55;;
15171;SDS011;7686;52.184;9.280;2023-03-23T06:48:04;0.73;;;0.60;;
15171;SDS011;7686;52.184;9.280;2023-03-23T06:50:30;1.73;;;0.70;;
15171;SDS011;7686;52.184;9.280;2023-03-23T06:52:57;1.27;;;0.70;;
15171;SDS011;7686;52.184;9.280;2023-03-23T06:55:22;1.13;;;0.70;;
15171;SDS011;7686;52.184;9.280;2023-03-23T06:57:48;1.77;;;0.60;;
15171;SDS011;7686;52.184;9.280;2023-03-23T07:00:14;1.15;;;0.60;;
15171;SDS011;7686;52.184;9.280;2023-03-23T07:02:40;1.35;;;0.55;;
15171;SDS011;7686;52.184;9.280;2023-03-23T07:05:07;1.05;;;0.60;;
15171;SDS011;7686;52.184;9.280;2023-03-23T07:07:35;0.98;;;0.50;;
15171;SDS011;7686;52.184;9.280;2023-03-23T07:10:02;1.05;;;0.70;;
15171;SDS011;7686;52.184;9.280;2023-03-23T07:12:28;0.65;;;0.65;;
15171;SDS011;7686;52.184;9.280;2023-03-23T07:14:54;0.82;;;0.50;;
15171;SDS011;7686;52.184;9.280;2023-03-23T07:17:20;1.42;;;0.60;;
15171;SDS011;7686;52.184;9.280;2023-03-23T07:19:46;2.38;;;0.80;;
15171;SDS011;7686;52.184;9.280;2023-03-23T07:22:12;4.68;;;1.00;;
15171;SDS011;7686;52.184;9.280;2023-03-23T07:24:37;3.50;;;1.40;;
15171;SDS011;7686;52.184;9.280;2023-03-23T07:27:03;4.25;;;1.30;;
15171;SDS011;7686;52.184;9.280;2023-03-23T07:29:29;3.75;;;1.60;;
15171;SDS011;7686;52.184;9.280;2023-03-23T07:31:55;3.17;;;1.52;;
15171;SDS011;7686;52.184;9.280;2023-03-23T07:34:22;4.68;;;1.75;;
15171;SDS011;7686;52.184;9.280;2023-03-23T07:36:47;4.57;;;1.75;;
15171;SDS011;7686;52.184;9.280;2023-03-23T07:39:13;5.57;;;1.98;;
15171;SDS011;7686;52.184;9.280;2023-03-23T07:41:39;4.40;;;1.60;;
15171;SDS011;7686;52.184;9.280;2023-03-23T07:44:05;2.78;;;1.33;;
15171;SDS011;7686;52.184;9.280;2023-03-23T07:46:31;4.70;;;1.60;;
15171;SDS011;7686;52.184;9.280;2023-03-23T07:48:57;3.25;;;1.48;;
15171;SDS011;7686;52.184;9.280;2023-03-23T07:51:24;3.85;;;1.48;;
15171;SDS011;7686;52.184;9.280;2023-03-23T07:53:50;2.75;;;1.00;;
15171;SDS011;7686;52.184;9.280;2023-03-23T07:56:16;2.20;;;0.93;;
15171;SDS011;7686;52.184;9.280;2023-03-23T07:58:45;1.65;;;0.90;;
15171;SDS011;7686;52.184;9.280;2023-03-23T08:01:11;1.90;;;0.90;;
15171;SDS011;7686;52.184;9.280;2023-03-23T08:03:37;1.48;;;0.90;;
15171;SDS011;7686;52.184;9.280;2023-03-23T08:06:03;1.77;;;0.90;;
15171;SDS011;7686;52.184;9.280;2023-03-23T08:08:30;2.20;;;0.77;;
15171;SDS011;7686;52.184;9.280;2023-03-23T08:10:56;1.55;;;0.80;;
15171;SDS011;7686;52.184;9.280;2023-03-23T08:13:22;1.42;;;0.90;;
15171;SDS011;7686;52.184;9.280;2023-03-23T08:15:48;1.25;;;0.80;;
15171;SDS011;7686;52.184;9.280;2023-03-23T08:18:14;1.40;;;0.70;;
15171;SDS011;7686;52.184;9.280;2023-03-23T08:20:40;1.50;;;0.90;;
15171;SDS011;7686;52.184;9.280;2023-03-23T08:23:06;1.17;;;0.70;;
15171;SDS011;7686;52.184;9.280;2023-03-23T08:25:32;1.35;;;0.80;;
15171;SDS011;7686;52.184;9.280;2023-03-23T08:27:59;1.58;;;0.82;;
15171;SDS011;7686;52.184;9.280;2023-03-23T08:30:26;2.13;;;0.70;;
15171;SDS011;7686;52.184;9.280;2023-03-23T08:32:55;1.23;;;0.63;;
15171;SDS011;7686;52.184;9.280;2023-03-23T08:35:23;1.00;;;0.70;;
15171;SDS011;7686;52.184;9.280;2023-03-23T08:37:49;2.58;;;0.70;;
15171;SDS011;7686;52.184;9.280;2023-03-23T08:40:17;1.02;;;0.70;;
15171;SDS011;7686;52.184;9.280;2023-03-23T08:42:44;1.08;;;0.70;;
15171;SDS011;7686;52.184;9.280;2023-03-23T08:45:12;1.50;;;0.80;;
15171;SDS011;7686;52.184;9.280;2023-03-23T08:47:41;1.48;;;0.60;;
15171;SDS011;7686;52.184;9.280;2023-03-23T08:50:08;0.93;;;0.60;;
15171;SDS011;7686;52.184;9.280;2023-03-23T08:52:39;0.55;;;0.55;;
15171;SDS011;7686;52.184;9.280;2023-03-23T08:55:06;1.58;;;0.70;;
15171;SDS011;7686;52.184;9.280;2023-03-23T08:57:34;0.80;;;0.65;;
15171;SDS011;7686;52.184;9.280;2023-03-23T09:00:02;0.63;;;0.60;;
15171;SDS011;7686;52.184;9.280;2023-03-23T09:02:38;0.85;;;0.60;;
15171;SDS011;7686;52.184;9.280;2023-03-23T09:05:05;0.75;;;0.52;;
15171;SDS011;7686;52.184;9.280;2023-03-23T09:07:32;0.73;;;0.50;;
15171;SDS011;7686;52.184;9.280;2023-03-23T09:09:57;1.52;;;0.70;;
15171;SDS011;7686;52.184;9.280;2023-03-23T09:12:23;0.90;;;0.70;;
15171;SDS011;7686;52.184;9.280;2023-03-23T09:14:49;1.25;;;0.77;;
15171;SDS011;7686;52.184;9.280;2023-03-23T09:17:15;1.35;;;0.70;;
15171;SDS011;7686;52.184;9.280;2023-03-23T09:19:40;0.50;;;0.50;;
15171;SDS011;7686;52.184;9.280;2023-03-23T09:22:06;2.88;;;0.80;;
15171;SDS011;7686;52.184;9.280;2023-03-23T09:24:33;1.35;;;0.63;;
15171;SDS011;7686;52.184;9.280;2023-03-23T09:26:58;0.80;;;0.60;;
15171;SDS011;7686;52.184;9.280;2023-03-23T09:29:25;1.85;;;0.90;;
15171;SDS011;7686;52.184;9.280;2023-03-23T09:31:52;0.73;;;0.50;;
15171;SDS011;7686;52.184;9.280;2023-03-23T09:34:21;1.98;;;0.70;;
15171;SDS011;7686;52.184;9.280;2023-03-23T09:36:47;0.70;;;0.60;;
15171;SDS011;7686;52.184;9.280;2023-03-23T09:39:13;1.40;;;0.70;;
15171;SDS011;7686;52.184;9.280;2023-03-23T09:44:36;1.13;;;0.68;;
15171;SDS011;7686;52.184;9.280;2023-03-23T09:47:16;2.95;;;0.55;;
15171;SDS011;7686;52.184;9.280;2023-03-23T09:49:57;2.80;;;0.70;;
15171;SDS011;7686;52.184;9.280;2023-03-23T09:52:41;0.55;;;0.50;;
15171;SDS011;7686;52.184;9.280;2023-03-23T09:55:13;1.15;;;0.70;;
15171;SDS011;7686;52.184;9.280;2023-03-23T10:03:05;1.23;;;0.60;;
15171;SDS011;7686;52.184;9.280;2023-03-23T10:05:41;1.13;;;0.65;;
15171;SDS011;7686;52.184;9.280;2023-03-23T10:08:17;1.17;;;0.60;;
15171;SDS011;7686;52.184;9.280;2023-03-23T10:16:18;2.30;;;0.60;;
15171;SDS011;7686;52.184;9.280;2023-03-23T10:18:49;0.88;;;0.70;;
15171;SDS011;7686;52.184;9.280;2023-03-23T10:21:29;0.60;;;0.60;;
15171;SDS011;7686;52.184;9.280;2023-03-23T10:26:40;0.80;;;0.60;;
15171;SDS011;7686;52.184;9.280;2023-03-23T10:29:45;0.98;;;0.70;;
15171;SDS011;7686;52.184;9.280;2023-03-23T10:32:13;1.20;;;0.60;;
15171;SDS011;7686;52.184;9.280;2023-03-23T10:37:29;1.35;;;0.70;;
15171;SDS011;7686;52.184;9.280;2023-03-23T10:40:01;0.70;;;0.50;;
15171;SDS011;7686;52.184;9.280;2023-03-23T10:42:34;1.00;;;0.70;;
15171;SDS011;7686;52.184;9.280;2023-03-23T10:45:15;1.02;;;0.70;;
15171;SDS011;7686;52.184;9.280;2023-03-23T10:48:05;0.80;;;0.52;;
15171;SDS011;7686;52.184;9.280;2023-03-23T10:50:43;0.80;;;0.70;;
15171;SDS011;7686;52.184;9.280;2023-03-23T10:53:58;1.70;;;0.80;;
15171;SDS011;7686;52.184;9.280;2023-03-23T10:56:03;0.82;;;0.60;;
15171;SDS011;7686;52.184;9.280;2023-03-23T10:58:34;0.93;;;0.50;;
15171;SDS011;7686;52.184;9.280;2023-03-23T11:01:01;1.02;;;0.55;;
15171;SDS011;7686;52.184;9.280;2023-03-23T11:03:35;1.08;;;0.60;;
15171;SDS011;7686;52.184;9.280;2023-03-23T11:06:24;1.75;;;0.63;;
15171;SDS011;7686;52.184;9.280;2023-03-23T11:08:55;1.00;;;0.60;;
15171;SDS011;7686;52.184;9.280;2023-03-23T11:11:28;0.80;;;0.70;;
15171;SDS011;7686;52.184;9.280;2023-03-23T11:13:57;0.45;;;0.45;;
15171;SDS011;7686;52.184;9.280;2023-03-23T11:16:31;0.85;;;0.60;;
15171;SDS011;7686;52.184;9.280;2023-03-23T11:19:00;0.60;;;0.60;;
15171;SDS011;7686;52.184;9.280;2023-03-23T11:21:36;0.70;;;0.70;;
15171;SDS011;7686;52.184;9.280;2023-03-23T11:24:03;0.70;;;0.60;;
15171;SDS011;7686;52.184;9.280;2023-03-23T11:26:34;0.93;;;0.60;;
15171;SDS011;7686;52.184;9.280;2023-03-23T11:29:09;1.65;;;0.65;;
15171;SDS011;7686;52.184;9.280;2023-03-23T11:31:42;0.80;;;0.60;;
15171;SDS011;7686;52.184;9.280;2023-03-23T11:34:20;1.23;;;0.70;;
15171;SDS011;7686;52.184;9.280;2023-03-23T11:45:19;0.40;;;0.40;;
15171;SDS011;7686;52.184;9.280;2023-03-23T11:50:43;0.70;;;0.50;;
15171;SDS011;7686;52.184;9.280;2023-03-23T11:53:12;1.35;;;0.60;;
15171;SDS011;7686;52.184;9.280;2023-03-23T11:58:51;1.13;;;0.60;;
15171;SDS011;7686;52.184;9.280;2023-03-23T12:01:44;0.50;;;0.50;;
15171;SDS011;7686;52.184;9.280;2023-03-23T12:12:50;2.92;;;0.73;;
15171;SDS011;7686;52.184;9.280;2023-03-23T12:27:12;3.22;;;0.60;;
15171;SDS011;7686;52.184;9.280;2023-03-23T12:38:21;2.15;;;0.60;;
15171;SDS011;7686;52.184;9.280;2023-03-23T12:41:05;1.10;;;0.50;;
15171;SDS011;7686;52.184;9.280;2023-03-23T12:44:07;1.50;;;0.63;;
15171;SDS011;7686;52.184;9.280;2023-03-23T12:49:17;1.63;;;0.60;;
15171;SDS011;7686;52.184;9.280;2023-03-23T12:52:10;0.95;;;0.55;;
15171;SDS011;7686;52.184;9.280;2023-03-23T12:54:58;1.40;;;0.65;;
15171;SDS011;7686;52.184;9.280;2023-03-23T12:57:34;1.85;;;0.55;;
15171;SDS011;7686;52.184;9.280;2023-03-23T13:00:21;1.52;;;0.68;;
15171;SDS011;7686;52.184;9.280;2023-03-23T13:05:42;1.48;;;0.57;;
15171;SDS011;7686;52.184;9.280;2023-03-23T13:08:49;1.17;;;0.57;;
15171;SDS011;7686;52.184;9.280;2023-03-23T13:11:35;0.30;;;0.30;;
15171;SDS011;7686;52.184;9.280;2023-03-23T13:19:59;0.68;;;0.60;;
15171;SDS011;7686;52.184;9.280;2023-03-23T13:25:38;0.88;;;0.70;;
15171;SDS011;7686;52.184;9.280;2023-03-23T13:28:19;1.40;;;0.50;;
15171;SDS011;7686;52.184;9.280;2023-03-23T13:33:43;0.50;;;0.47;;
15171;SDS011;7686;52.184;9.280;2023-03-23T13:36:25;1.30;;;0.50;;
15171;SDS011;7686;52.184;9.280;2023-03-23T13:39:01;0.47;;;0.40;;
15171;SDS011;7686;52.184;9.280;2023-03-23T13:41:29;1.88;;;0.60;;
15171;SDS011;7686;52.184;9.280;2023-03-23T13:44:14;1.00;;;0.52;;
15171;SDS011;7686;52.184;9.280;2023-03-23T13:46:53;2.00;;;0.60;;
15171;SDS011;7686;52.184;9.280;2023-03-23T13:49:21;0.57;;;0.57;;
15171;SDS011;7686;52.184;9.280;2023-03-23T13:54:23;2.25;;;0.50;;
15171;SDS011;7686;52.184;9.280;2023-03-23T13:59:58;0.50;;;0.50;;
15171;SDS011;7686;52.184;9.280;2023-03-23T14:02:32;1.42;;;0.60;;
15171;SDS011;7686;52.184;9.280;2023-03-23T14:05:29;0.77;;;0.50;;
15171;SDS011;7686;52.184;9.280;2023-03-23T14:10:33;1.20;;;0.60;;
15171;SDS011;7686;52.184;9.280;2023-03-23T14:13:00;0.50;;;0.43;;
15171;SDS011;7686;52.184;9.280;2023-03-23T14:15:28;0.40;;;0.40;;
15171;SDS011;7686;52.184;9.280;2023-03-23T14:17:55;1.70;;;0.88;;
15171;SDS011;7686;52.184;9.280;2023-03-23T14:20:31;2.35;;;0.60;;
15171;SDS011;7686;52.184;9.280;2023-03-23T14:23:00;0.75;;;0.50;;
15171;SDS011;7686;52.184;9.280;2023-03-23T14:25:26;1.02;;;0.55;;
15171;SDS011;7686;52.184;9.280;2023-03-23T14:27:55;1.48;;;0.70;;
15171;SDS011;7686;52.184;9.280;2023-03-23T14:30:22;0.38;;;0.38;;
15171;SDS011;7686;52.184;9.280;2023-03-23T14:32:51;0.98;;;0.60;;
15171;SDS011;7686;52.184;9.280;2023-03-23T14:35:20;0.77;;;0.50;;
15171;SDS011;7686;52.184;9.280;2023-03-23T14:37:55;0.75;;;0.50;;
15171;SDS011;7686;52.184;9.280;2023-03-23T14:40:22;1.05;;;0.70;;
15171;SDS011;7686;52.184;9.280;2023-03-23T14:42:50;0.35;;;0.35;;
15171;SDS011;7686;52.184;9.280;2023-03-23T14:45:19;0.57;;;0.50;;
15171;SDS011;7686;52.184;9.280;2023-03-23T14:47:54;0.90;;;0.60;;
15171;SDS011;7686;52.184;9.280;2023-03-23T14:50:27;1.08;;;0.45;;
15171;SDS011;7686;52.184;9.280;2023-03-23T14:53:22;0.40;;;0.40;;
15171;SDS011;7686;52.184;9.280;2023-03-23T14:55:59;1.10;;;0.50;;
15171;SDS011;7686;52.184;9.280;2023-03-23T14:58:27;1.05;;;0.50;;
15171;SDS011;7686;52.184;9.280;2023-03-23T15:03:19;0.93;;;0.60;;
15171;SDS011;7686;52.184;9.280;2023-03-23T15:05:47;2.25;;;0.73;;
15171;SDS011;7686;52.184;9.280;2023-03-23T15:10:56;1.40;;;0.50;;
15171;SDS011;7686;52.184;9.280;2023-03-23T15:13:28;1.65;;;0.70;;
15171;SDS011;7686;52.184;9.280;2023-03-23T15:16:01;0.50;;;0.50;;
15171;SDS011;7686;52.184;9.280;2023-03-23T15:18:30;2.08;;;0.63;;
15171;SDS011;7686;52.184;9.280;2023-03-23T15:21:12;1.73;;;0.52;;
15171;SDS011;7686;52.184;9.280;2023-03-23T15:23:47;0.80;;;0.50;;
15171;SDS011;7686;52.184;9.280;2023-03-23T15:26:18;4.57;;;0.70;;
15171;SDS011;7686;52.184;9.280;2023-03-23T15:28:58;1.00;;;0.50;;
15171;SDS011;7686;52.184;9.280;2023-03-23T15:31:42;1.75;;;0.75;;
15171;SDS011;7686;52.184;9.280;2023-03-23T15:34:12;1.75;;;0.60;;
15171;SDS011;7686;52.184;9.280;2023-03-23T15:36:43;0.57;;;0.57;;
15171;SDS011;7686;52.184;9.280;2023-03-23T15:39:11;1.25;;;0.50;;
15171;SDS011;7686;52.184;9.280;2023-03-23T15:41:45;2.42;;;0.63;;
15171;SDS011;7686;52.184;9.280;2023-03-23T15:44:20;0.70;;;0.60;;
15171;SDS011;7686;52.184;9.280;2023-03-23T15:46:53;3.50;;;0.60;;
15171;SDS011;7686;52.184;9.280;2023-03-23T15:49:27;1.38;;;0.30;;
15171;SDS011;7686;52.184;9.280;2023-03-23T15:51:53;0.73;;;0.52;;
15171;SDS011;7686;52.184;9.280;2023-03-23T15:54:18;1.25;;;0.55;;
15171;SDS011;7686;52.184;9.280;2023-03-23T15:56:44;1.90;;;0.70;;
15171;SDS011;7686;52.184;9.280;2023-03-23T15:59:10;1.05;;;0.60;;
15171;SDS011;7686;52.184;9.280;2023-03-23T16:01:38;0.52;;;0.50;;
15171;SDS011;7686;52.184;9.280;2023-03-23T16:04:13;1.02;;;0.60;;
15171;SDS011;7686;52.184;9.280;2023-03-23T16:06:43;1.10;;;0.60;;
15171;SDS011;7686;52.184;9.280;2023-03-23T16:09:14;1.85;;;0.50;;
15171;SDS011;7686;52.184;9.280;2023-03-23T16:11:41;0.45;;;0.45;;
15171;SDS011;7686;52.184;9.280;2023-03-23T16:14:09;1.20;;;0.57;;
15171;SDS011;7686;52.184;9.280;2023-03-23T16:19:04;0.40;;;0.40;;
15171;SDS011;7686;52.184;9.280;2023-03-23T16:21:31;0.93;;;0.50;;
15171;SDS011;7686;52.184;9.280;2023-03-23T16:23:58;0.95;;;0.50;;
15171;SDS011;7686;52.184;9.280;2023-03-23T16:26:25;0.95;;;0.55;;
15171;SDS011;7686;52.184;9.280;2023-03-23T16:28:52;1.08;;;0.50;;
15171;SDS011;7686;52.184;9.280;2023-03-23T16:31:35;0.77;;;0.50;;
15171;SDS011;7686;52.184;9.280;2023-03-23T16:34:02;1.50;;;0.50;;
15171;SDS011;7686;52.184;9.280;2023-03-23T16:36:29;0.93;;;0.50;;
15171;SDS011;7686;52.184;9.280;2023-03-23T16:38:55;1.55;;;0.63;;
15171;SDS011;7686;52.184;9.280;2023-03-23T16:41:22;0.52;;;0.43;;
15171;SDS011;7686;52.184;9.280;2023-03-23T16:43:49;1.35;;;0.60;;
15171;SDS011;7686;52.184;9.280;2023-03-23T16:46:16;1.90;;;0.40;;
15171;SDS011;7686;52.184;9.280;2023-03-23T16:48:43;0.75;;;0.30;;
15171;SDS011;7686;52.184;9.280;2023-03-23T16:51:09;1.83;;;0.60;;
15171;SDS011;7686;52.184;9.280;2023-03-23T16:53:36;0.75;;;0.30;;
15171;SDS011;7686;52.184;9.280;2023-03-23T16:56:03;0.43;;;0.40;;
15171;SDS011;7686;52.184;9.280;2023-03-23T16:58:30;0.50;;;0.50;;
15171;SDS011;7686;52.184;9.280;2023-03-23T17:00:57;0.65;;;0.52;;
15171;SDS011;7686;52.184;9.280;2023-03-23T17:03:26;1.00;;;0.50;;
15171;SDS011;7686;52.184;9.280;2023-03-23T17:05:52;0.50;;;0.50;;
15171;SDS011;7686;52.184;9.280;2023-03-23T17:08:20;0.80;;;0.45;;
15171;SDS011;7686;52.184;9.280;2023-03-23T17:10:47;2.22;;;0.45;;
15171;SDS011;7686;52.184;9.280;2023-03-23T17:13:14;1.45;;;0.38;;
15171;SDS011;7686;52.184;9.280;2023-03-23T17:15:42;1.33;;;0.55;;
15171;SDS011;7686;52.184;9.280;2023-03-23T17:18:12;1.42;;;0.50;;
15171;SDS011;7686;52.184;9.280;2023-03-23T17:20:41;0.98;;;0.45;;